Terminal Aerodrome Forecast
Issued by NWS Wilmington, OH

Home | Current Version | Previous Version | Text Only | Print | Product List | Glossary On
Versions: 1 2 3 4 5 6 7 8 9 10 11 12 13 14 15 16 17 18
000
FTUS41 KILN 211730
TAFDAY
TAF
KDAY 211730Z 2118/2218 22017G28KT P6SM SCT120 BKN250
     FM212300 26010G18KT P6SM SCT090 BKN250
     FM220200 30011G18KT P6SM VCSH BKN025
     FM220400 31011KT P6SM BKN050
     FM220600 32009KT P6SM SCT090
     FM221400 35009KT P6SM SCT025=

USA.gov is the U.S. government's official web portal to all federal, state and local government web resources and services.